Allenhurst, New Jersey
Current Conditions -  °F | °C
As of 1:15 AM on Saturday 01 Nov 2014 (Local Time) from KBLM Reporting Station
Overcast Overcast  
Wind Chill: 52°   Ceiling: 900
Heat Index: 52°   Visibility: 10mi
Dew Point: 45°   Wind: 13mph
Humidity: 76%   Direction: 30°NNE
Pressure: 29.8"   Gusts: 17mph
Location:  40.24°N, 74°W
Report Text: KBLM 010515Z AUTO 03011G15KT 10SM OVC009 11/07 A2980 RMK AO1
Loading
Personal Weather Stations






























Interactive Weather Map
Tropical Storm Tracking
New forecast layout! Learn more

10-Day Weather Forecast

Advertisements
Track Severe Weather on mobile